createdAt,value
2018-12-23T00:02:09.942Z,10.08
2018-12-23T00:04:43.170Z,10.08
2018-12-23T00:07:15.746Z,10.01
2018-12-23T00:09:51.138Z,9.87
2018-12-23T00:12:26.217Z,9.85
2018-12-23T00:14:58.485Z,9.82
2018-12-23T00:17:28.959Z,9.82
2018-12-23T00:19:59.642Z,9.84
2018-12-23T00:22:44.374Z,9.77
2018-12-23T00:25:15.440Z,9.77
2018-12-23T00:27:46.372Z,9.81
2018-12-23T00:30:17.148Z,9.73
2018-12-23T00:32:50.179Z,9.74
2018-12-23T00:35:21.131Z,9.71
2018-12-23T00:37:54.115Z,9.71
2018-12-23T00:40:26.642Z,9.73
2018-12-23T00:42:58.442Z,9.77
2018-12-23T00:45:29.706Z,9.76
2018-12-23T00:48:00.437Z,9.74
2018-12-23T00:50:35.273Z,9.81
2018-12-23T00:53:07.321Z,9.85
2018-12-23T00:55:38.567Z,9.88
2018-12-23T00:58:09.181Z,9.87
2018-12-23T01:00:40.017Z,9.88
2018-12-23T01:03:10.733Z,9.89
2018-12-23T01:05:41.845Z,9.90
2018-12-23T01:08:12.645Z,9.85
2018-12-23T01:10:49.326Z,9.86
2018-12-23T01:13:22.941Z,9.92
2018-12-23T01:15:53.445Z,9.94
2018-12-23T01:18:25.070Z,9.93
2018-12-23T01:20:56.350Z,9.94
2018-12-23T01:23:28.689Z,9.88
2018-12-23T01:25:59.759Z,9.91
2018-12-23T01:28:31.635Z,9.96
2018-12-23T01:31:04.014Z,9.96
2018-12-23T01:33:45.602Z,9.94
2018-12-23T01:36:16.745Z,9.95
2018-12-23T01:38:47.894Z,9.97
2018-12-23T01:41:21.542Z,9.98
2018-12-23T01:43:54.775Z,9.94
2018-12-23T01:46:25.981Z,9.94
2018-12-23T01:48:58.985Z,9.92
2018-12-23T01:51:29.603Z,9.97
2018-12-23T01:54:03.596Z,9.94
2018-12-23T01:56:36.836Z,9.95
2018-12-23T01:59:10.935Z,9.96
2018-12-23T02:01:41.701Z,10.00
2018-12-23T02:04:12.849Z,9.96
2018-12-23T02:06:43.649Z,9.99
2018-12-23T02:09:14.524Z,9.97
2018-12-23T02:11:47.512Z,9.93
2018-12-23T02:14:19.004Z,9.85
2018-12-23T02:16:49.611Z,9.83
2018-12-23T02:19:21.010Z,9.91
2018-12-23T02:21:56.477Z,9.81
2018-12-23T02:24:28.159Z,9.89
2018-12-23T02:27:00.171Z,9.84
2018-12-23T02:29:33.195Z,9.84
2018-12-23T02:32:04.047Z,9.71
2018-12-23T02:34:34.722Z,9.80
2018-12-23T02:37:06.309Z,9.80
2018-12-23T02:39:37.171Z,9.78
2018-12-23T02:42:10.934Z,9.83
2018-12-23T02:44:45.247Z,9.78
2018-12-23T02:47:18.538Z,9.80
2018-12-23T02:49:50.958Z,9.82
2018-12-23T02:52:21.801Z,9.78
2018-12-23T02:54:53.043Z,9.80
2018-12-23T02:58:28.343Z,9.84
2018-12-23T03:01:19.315Z,9.86
2018-12-23T03:04:29.295Z,9.86
2018-12-23T03:07:13.380Z,9.78
2018-12-23T03:10:15.651Z,9.78
2018-12-23T03:18:37.021Z,9.81
2018-12-23T03:21:47.013Z,9.77
2018-12-23T03:24:56.982Z,9.76
2018-12-23T03:28:06.969Z,9.68
2018-12-23T03:33:43.769Z,9.61
2018-12-23T03:36:34.741Z,9.59
2018-12-23T03:42:09.804Z,9.47
2018-12-23T03:48:05.710Z,9.41
2018-12-23T03:51:15.706Z,9.33
2018-12-23T03:54:25.687Z,9.30
2018-12-23T03:57:16.709Z,9.25
2018-12-23T04:00:19.558Z,9.25
2018-12-23T04:03:13.181Z,9.30
2018-12-23T04:14:14.055Z,9.34
2018-12-23T04:17:05.218Z,8.79
2018-12-23T04:19:56.228Z,9.33
2018-12-23T04:25:35.606Z,9.29
2018-12-23T04:28:26.648Z,9.25
2018-12-23T04:36:46.023Z,9.24
2018-12-23T04:45:23.681Z,9.21
2018-12-23T04:48:45.041Z,9.22
2018-12-23T04:51:19.150Z,9.21
2018-12-23T04:54:10.221Z,9.21
2018-12-23T04:57:01.273Z,9.14
2018-12-23T05:16:53.323Z,9.32
2018-12-23T05:19:44.316Z,9.30
2018-12-23T05:23:13.561Z,9.32
2018-12-23T05:26:04.551Z,9.35
2018-12-23T05:28:55.594Z,9.29
2018-12-23T05:31:46.652Z,9.22
2018-12-23T05:41:01.169Z,9.19
2018-12-23T05:43:52.177Z,9.19
2018-12-23T05:49:30.697Z,9.23
2018-12-23T05:52:23.788Z,9.24
2018-12-23T05:55:35.397Z,9.25
2018-12-23T05:58:27.435Z,9.23
2018-12-23T06:04:20.272Z,9.19
2018-12-23T06:07:11.290Z,9.22
2018-12-23T06:13:07.490Z,9.23
2018-12-23T06:19:02.601Z,9.22
2018-12-23T06:24:37.101Z,9.25
2018-12-23T06:30:32.008Z,9.13
2018-12-23T06:33:43.772Z,9.26
2018-12-23T06:37:09.965Z,9.28
2018-12-23T06:45:23.366Z,9.30
2018-12-23T06:48:16.480Z,8.86
2018-12-23T06:54:09.552Z,9.29
2018-12-23T06:57:19.566Z,9.28
2018-12-23T07:00:22.535Z,9.33
2018-12-23T07:08:23.768Z,9.36
2018-12-23T07:13:57.795Z,9.31
2018-12-23T07:22:36.840Z,9.37
2018-12-23T07:28:32.774Z,9.34
2018-12-23T07:31:25.476Z,9.39
2018-12-23T07:42:51.878Z,9.47
2018-12-23T07:48:44.290Z,9.58
2018-12-23T07:51:54.271Z,9.63
2018-12-23T07:57:47.911Z,9.69
2018-12-23T08:09:10.853Z,9.75
2018-12-23T08:12:20.831Z,9.80
2018-12-23T08:15:16.006Z,9.85
2018-12-23T08:18:07.035Z,9.90
2018-12-23T08:20:58.035Z,10.09
2018-12-23T08:23:49.013Z,9.93
2018-12-23T08:29:42.818Z,9.92
2018-12-23T08:35:22.130Z,10.06
2018-12-23T08:38:13.119Z,10.06
2018-12-23T08:44:07.020Z,10.04
2018-12-23T08:47:17.005Z,10.15
2018-12-23T08:50:26.994Z,10.16
2018-12-23T08:59:04.332Z,10.04
2018-12-23T09:02:14.319Z,10.05
2018-12-23T09:05:18.691Z,10.01
2018-12-23T09:08:04.470Z,10.11
2018-12-23T09:14:04.027Z,10.05
2018-12-23T09:16:38.956Z,10.12
2018-12-23T09:22:02.098Z,10.17
2018-12-23T09:25:13.673Z,10.31
2018-12-23T09:28:43.360Z,10.19
2018-12-23T09:31:34.482Z,10.24
2018-12-23T09:37:28.259Z,10.16
2018-12-23T09:41:03.630Z,10.22
2018-12-23T09:44:32.810Z,10.24
2018-12-23T09:56:54.027Z,10.27
2018-12-23T09:59:45.729Z,10.35
2018-12-23T10:02:49.571Z,10.44
2018-12-23T10:11:52.490Z,10.47
2018-12-23T10:24:14.362Z,10.47
2018-12-23T10:27:06.313Z,10.38
2018-12-23T10:30:16.313Z,10.42
2018-12-23T10:32:59.634Z,10.59
2018-12-23T10:35:50.613Z,10.65
2018-12-23T10:38:56.165Z,10.88
2018-12-23T10:42:06.144Z,10.94
2018-12-23T10:45:16.141Z,10.76
2018-12-23T10:48:27.958Z,10.60
2018-12-23T10:51:28.873Z,10.58
2018-12-23T11:02:56.740Z,10.49
2018-12-23T11:05:52.452Z,10.53
2018-12-23T11:08:43.746Z,10.54
2018-12-23T11:11:34.755Z,10.56
2018-12-23T11:14:25.730Z,10.68
2018-12-23T11:17:16.725Z,10.71
2018-12-23T11:20:19.808Z,10.72
2018-12-23T11:22:51.819Z,10.80
2018-12-23T11:31:11.734Z,10.46
2018-12-23T11:34:02.421Z,11.06
2018-12-23T11:39:37.914Z,10.53
2018-12-23T11:42:47.890Z,10.72
2018-12-23T11:53:53.967Z,11.46
2018-12-23T11:56:44.952Z,11.58
2018-12-23T12:05:24.089Z,11.26
2018-12-23T12:10:58.168Z,11.31
2018-12-23T12:13:49.175Z,11.21
2018-12-23T12:19:42.956Z,11.08
2018-12-23T12:23:12.247Z,10.93
2018-12-23T12:26:22.234Z,11.04
2018-12-23T12:31:58.048Z,11.11
2018-12-23T12:38:10.737Z,10.90
2018-12-23T12:41:01.752Z,10.63
2018-12-23T12:43:52.811Z,10.77
2018-12-23T12:46:55.280Z,10.63
2018-12-23T12:52:31.311Z,10.57
2018-12-23T12:55:41.303Z,10.64
2018-12-23T13:03:59.271Z,10.88
2018-12-23T13:06:50.309Z,10.58
2018-12-23T13:17:52.964Z,10.84
2018-12-23T13:23:28.414Z,11.10
2018-12-23T13:29:05.386Z,10.86
2018-12-23T13:31:56.363Z,10.91
2018-12-23T13:37:51.444Z,11.07
2018-12-23T13:41:16.055Z,11.26
2018-12-23T13:44:27.420Z,11.08
2018-12-23T13:47:56.365Z,10.69
2018-12-23T13:51:25.323Z,10.51
2018-12-23T13:54:54.263Z,10.47
2018-12-23T13:58:23.269Z,10.78
2018-12-23T14:01:52.306Z,10.87
2018-12-23T14:05:21.258Z,10.52
2018-12-23T14:08:50.307Z,10.93
2018-12-23T14:12:00.264Z,10.80
2018-12-23T14:14:51.275Z,10.67
2018-12-23T14:18:02.393Z,10.74
2018-12-23T14:21:12.466Z,10.62
2018-12-23T14:24:13.395Z,10.81
2018-12-23T14:26:47.971Z,10.67
2018-12-23T14:29:39.090Z,10.86
2018-12-23T14:35:17.598Z,10.50
2018-12-23T14:46:20.750Z,11.07
2018-12-23T14:52:05.172Z,11.11
2018-12-23T14:57:39.697Z,10.93
2018-12-23T15:00:30.707Z,10.84
2018-12-23T15:03:21.681Z,10.69
2018-12-23T15:06:22.607Z,10.69
2018-12-23T15:14:45.925Z,10.88
2018-12-23T15:17:56.246Z,10.99
2018-12-23T15:23:51.765Z,10.94
2018-12-23T15:29:25.828Z,10.67
2018-12-23T15:32:16.846Z,10.81
2018-12-23T15:35:26.809Z,11.09
2018-12-23T15:38:17.796Z,10.96
2018-12-23T15:41:08.787Z,10.70
2018-12-23T15:43:59.903Z,10.78
2018-12-23T15:49:53.285Z,10.86
2018-12-23T15:52:44.285Z,10.82
2018-12-23T15:55:54.292Z,10.78
2018-12-23T16:01:28.994Z,10.74
2018-12-23T16:04:19.987Z,10.91
2018-12-23T16:09:54.543Z,10.86
2018-12-23T16:13:04.581Z,10.99
2018-12-23T16:16:14.609Z,11.11
2018-12-23T16:22:12.039Z,10.39
2018-12-23T16:27:28.052Z,10.83
2018-12-23T16:30:19.135Z,10.59
2018-12-23T16:33:10.031Z,10.50
2018-12-23T16:36:20.074Z,11.00
2018-12-23T16:39:11.099Z,10.75
2018-12-23T16:42:02.121Z,11.11
2018-12-23T16:44:52.760Z,10.80
2018-12-23T16:47:53.711Z,11.35
2018-12-23T16:53:09.186Z,11.34
2018-12-23T16:56:00.199Z,11.30
2018-12-23T16:59:10.206Z,10.64
2018-12-23T17:02:01.205Z,10.79
2018-12-23T17:05:30.166Z,10.45
2018-12-23T17:08:40.399Z,10.86
2018-12-23T17:19:26.911Z,10.71
2018-12-23T17:25:19.257Z,10.54
2018-12-23T17:31:14.472Z,10.68
2018-12-23T17:34:05.497Z,10.82
2018-12-23T17:36:56.484Z,10.97
2018-12-23T17:39:47.490Z,11.17
2018-12-23T17:42:57.803Z,10.94
2018-12-23T17:45:48.807Z,10.85
2018-12-23T17:51:43.452Z,10.96
2018-12-23T17:54:34.433Z,10.98
2018-12-23T17:57:16.693Z,11.16
2018-12-23T18:00:19.656Z,10.47
2018-12-23T18:11:06.415Z,9.56
2018-12-23T18:19:23.666Z,9.72
2018-12-23T18:28:03.596Z,9.81
2018-12-23T18:30:54.579Z,9.91
2018-12-23T18:37:08.411Z,9.88
2018-12-23T18:43:03.642Z,9.97
2018-12-23T18:45:54.621Z,9.57
2018-12-23T18:54:36.795Z,9.47
2018-12-23T19:03:38.762Z,9.36
2018-12-23T19:06:48.798Z,9.12
2018-12-23T19:10:17.740Z,9.01
2018-12-23T19:13:46.726Z,8.81
2018-12-23T19:17:00.588Z,8.94
2018-12-23T19:19:58.363Z,8.88
2018-12-23T19:23:13.935Z,8.72
2018-12-23T19:26:42.890Z,8.66
2018-12-23T19:33:27.433Z,8.84
2018-12-23T19:40:18.498Z,8.57
2018-12-23T19:43:47.451Z,8.62
2018-12-23T19:47:16.390Z,8.67
2018-12-23T19:50:25.988Z,8.75
2018-12-23T19:53:55.101Z,8.71
2018-12-23T19:57:06.177Z,9.05
2018-12-23T20:00:35.116Z,8.85
2018-12-23T20:03:44.746Z,8.88
2018-12-23T20:07:13.721Z,9.00
2018-12-23T20:10:42.698Z,8.95
2018-12-23T20:14:11.690Z,8.74
2018-12-23T20:17:40.634Z,8.81
2018-12-23T20:21:09.582Z,9.57
2018-12-23T20:24:38.516Z,10.56
2018-12-23T20:28:07.452Z,9.18
2018-12-23T20:31:36.419Z,9.62
2018-12-23T20:35:24.297Z,10.63
2018-12-23T20:38:21.985Z,11.37
2018-12-23T20:41:50.970Z,11.58
2018-12-23T20:45:00.563Z,11.20
2018-12-23T20:48:29.544Z,11.79
2018-12-23T20:51:58.547Z,11.87
2018-12-23T20:55:23.583Z,12.29
2018-12-23T20:58:42.949Z,12.24
2018-12-23T21:02:06.589Z,12.38
2018-12-23T21:05:35.616Z,12.49
2018-12-23T21:09:05.637Z,10.87
2018-12-23T21:12:21.280Z,8.78
2018-12-23T21:15:50.322Z,8.23
2018-12-23T21:19:12.363Z,7.03
2018-12-23T21:22:41.307Z,8.12
2018-12-23T21:26:10.257Z,7.93
2018-12-23T21:32:50.643Z,8.01
2018-12-23T21:36:15.858Z,8.23
2018-12-23T21:39:17.583Z,8.40
2018-12-23T21:46:10.488Z,8.59
2018-12-23T21:49:39.446Z,8.91
2018-12-23T21:53:09.009Z,8.72
2018-12-23T21:56:14.199Z,8.71
2018-12-23T21:59:43.412Z,8.58
2018-12-23T22:03:31.629Z,8.73
2018-12-23T22:07:00.667Z,8.77
2018-12-23T22:10:29.613Z,8.95
2018-12-23T22:13:39.602Z,8.70
2018-12-23T22:16:49.620Z,8.44
2018-12-23T22:19:59.589Z,8.60
2018-12-23T22:23:09.582Z,8.37
2018-12-23T22:26:32.102Z,8.11
2018-12-23T22:34:31.652Z,8.31
2018-12-23T22:37:41.640Z,8.11
2018-12-23T22:40:43.808Z,7.95
2018-12-23T22:46:18.735Z,7.92
2018-12-23T22:54:56.785Z,8.01
2018-12-23T23:03:36.801Z,7.40
2018-12-23T23:06:27.814Z,7.12
2018-12-23T23:12:21.276Z,7.07
2018-12-23T23:15:31.254Z,7.05
2018-12-23T23:23:47.850Z,7.34
2018-12-23T23:46:19.123Z,7.18
2018-12-23T23:49:29.108Z,7.24
2018-12-23T23:52:39.102Z,7.20
2018-12-23T23:55:30.062Z,7.22
